Time;durP1;ratioP1;P1;durP2;ratioP2;P2;SDS_P1;SDS_P2;PMS_P1;PMS_P2;Temp;Humidity;BMP_temperature;BMP_pressure;BME280_temperature;BME280_humidity;BME280_pressure;Samples;Min_cycle;Max_cycle;Signal;HPM_P1;HPM_P2
2021/01/13 00:02:05;;;;;;;9.07;1.90;;;;;;;1.08;100.00;101812.91;4804318;29;20112;-83
2021/01/13 00:04:30;;;;;;;10.27;2.00;;;;;;;1.10;100.00;101796.44;4788631;29;20331;-83
2021/01/13 00:06:55;;;;;;;10.88;2.17;;;;;;;1.04;100.00;101793.78;4798630;29;20034;-84
2021/01/13 00:09:21;;;;;;;16.42;3.70;;;;;;;1.10;100.00;101809.44;4806474;29;20426;-83
2021/01/13 00:11:46;;;;;;;9.25;2.45;;;;;;;1.02;100.00;101804.19;4807848;29;20392;-83
2021/01/13 00:14:11;;;;;;;7.68;2.00;;;;;;;1.01;100.00;101806.78;4810482;29;20119;-83
2021/01/13 00:16:36;;;;;;;15.50;1.98;;;;;;;1.00;100.00;101803.31;4810267;29;20042;-83
2021/01/13 00:19:02;;;;;;;14.70;2.08;;;;;;;1.04;100.00;101810.25;4808918;29;20348;-83
2021/01/13 00:21:30;;;;;;;11.50;1.83;;;;;;;1.06;100.00;101815.50;4788687;29;20768;-84
2021/01/13 00:24:02;;;;;;;11.43;1.63;;;;;;;0.98;100.00;101791.13;4794695;29;20038;-83
2021/01/13 00:26:27;;;;;;;12.60;2.10;;;;;;;1.10;100.00;101805.97;4810084;29;20099;-83
2021/01/13 00:28:52;;;;;;;17.45;2.10;;;;;;;1.04;100.00;101804.19;4796546;29;20066;-83
2021/01/13 00:31:23;;;;;;;15.13;2.45;;;;;;;0.94;100.00;101792.81;4796214;29;20506;-83
2021/01/13 00:33:49;;;;;;;7.65;1.67;;;;;;;1.03;100.00;101798.13;4802532;29;20034;-83
2021/01/13 00:36:33;;;;;;;9.65;1.85;;;;;;;0.91;100.00;101789.31;4802899;29;20018;-84
2021/01/13 00:38:58;;;;;;;12.80;2.55;;;;;;;0.97;100.00;101781.56;4808172;29;20436;-83
2021/01/13 00:41:23;;;;;;;17.55;1.58;;;;;;;0.81;100.00;101790.94;4811199;29;20114;-84
2021/01/13 00:43:51;;;;;;;8.60;1.52;;;;;;;0.90;100.00;101780.59;4815311;29;20034;-84
2021/01/13 00:46:17;;;;;;;15.90;1.95;;;;;;;0.93;100.00;101783.25;4808362;29;20046;-84
2021/01/13 00:48:42;;;;;;;9.98;1.38;;;;;;;0.94;100.00;101781.53;4810043;29;20398;-84
2021/01/13 00:51:08;;;;;;;14.57;2.00;;;;;;;0.92;100.00;101786.72;4807956;29;20376;-84
2021/01/13 00:53:33;;;;;;;7.65;2.35;;;;;;;0.87;100.00;101782.34;4810850;29;20041;-84
2021/01/13 00:55:58;;;;;;;16.92;2.20;;;;;;;0.74;100.00;101784.78;4797505;29;20475;-84
2021/01/13 00:58:24;;;;;;;16.25;2.63;;;;;;;0.99;100.00;101779.84;4795299;29;20106;-84
2021/01/13 01:00:50;;;;;;;13.98;2.40;;;;;;;0.99;100.00;101780.72;4803846;29;20091;-83
2021/01/13 01:03:17;;;;;;;11.48;1.55;;;;;;;1.04;100.00;101778.16;4792936;29;20034;-83
2021/01/13 01:05:42;;;;;;;12.07;1.60;;;;;;;1.07;100.00;101778.19;4814412;29;20050;-83
2021/01/13 01:08:08;;;;;;;10.52;1.48;;;;;;;1.16;100.00;101765.25;4793748;29;20038;-83
2021/01/13 01:10:33;;;;;;;11.35;1.30;;;;;;;1.16;100.00;101761.78;4804577;29;20131;-83
2021/01/13 01:12:59;;;;;;;13.95;1.80;;;;;;;1.27;100.00;101766.22;4791082;29;20049;-83
2021/01/13 01:15:25;;;;;;;8.35;1.65;;;;;;;1.24;100.00;101767.91;4793690;29;20031;-84
2021/01/13 01:17:51;;;;;;;16.08;2.08;;;;;;;1.20;100.00;101768.75;4803386;29;20091;-84
2021/01/13 01:20:16;;;;;;;14.35;2.05;;;;;;;1.23;100.00;101772.25;4779574;30;20089;-84
2021/01/13 01:23:01;;;;;;;6.97;2.40;;;;;;;1.27;100.00;101780.97;4776318;29;20088;-83
2021/01/13 01:25:28;;;;;;;10.57;2.08;;;;;;;1.26;100.00;101780.13;4788373;29;20411;-84
2021/01/13 01:27:59;;;;;;;9.85;1.70;;;;;;;1.24;100.00;101773.13;4788439;29;20035;-84
2021/01/13 01:30:26;;;;;;;13.52;1.63;;;;;;;1.23;100.00;101768.78;4783810;30;20357;-84
2021/01/13 01:32:52;;;;;;;14.63;2.25;;;;;;;1.44;100.00;101775.91;4782485;30;20111;-84
2021/01/13 01:35:17;;;;;;;7.47;1.05;;;;;;;1.45;100.00;101772.44;4798911;30;20039;-84
2021/01/13 01:37:43;;;;;;;10.15;1.52;;;;;;;1.52;100.00;101780.31;4783105;30;20035;-84
2021/01/13 01:40:13;;;;;;;8.68;1.70;;;;;;;1.60;100.00;101782.09;4800412;29;20854;-84
2021/01/13 01:42:51;;;;;;;15.13;1.63;;;;;;;1.59;100.00;101770.81;4777995;30;20035;-84
2021/01/13 01:45:20;;;;;;;15.02;2.40;;;;;;;1.67;100.00;101787.38;4780956;29;20643;-84
2021/01/13 01:48:13;;;;;;;17.63;1.50;;;;;;;1.74;100.00;101793.50;4792409;29;20495;-84
2021/01/13 01:50:41;;;;;;;13.82;2.83;;;;;;;1.73;100.00;101784.81;4782618;30;20035;-84
2021/01/13 01:53:28;;;;;;;10.32;1.48;;;;;;;1.73;100.00;101796.97;4792211;29;20422;-83
2021/01/13 01:56:21;;;;;;;15.50;1.95;;;;;;;1.70;100.00;101791.72;4778687;30;20085;-83
2021/01/13 01:58:48;;;;;;;11.60;1.70;;;;;;;1.63;100.00;101802.97;4795717;29;20126;-83
2021/01/13 02:01:28;;;;;;;11.20;1.33;;;;;;;1.62;100.00;101798.63;4787747;29;20872;-84
2021/01/13 02:03:54;;;;;;;15.88;1.52;;;;;;;1.74;100.00;101803.94;4772016;29;20043;-83
2021/01/13 02:06:30;;;;;;;13.95;2.03;;;;;;;1.74;100.00;101810.00;4786032;30;20041;-84
2021/01/13 02:08:56;;;;;;;;;;;;;;;1.77;100.00;101810.03;4793946;30;20096;-84
2021/01/13 02:11:25;;;;;;;16.13;1.97;;;;;;;1.90;100.00;101812.72;4794067;29;19921;-84
2021/01/13 02:13:50;;;;;;;15.35;2.15;;;;;;;1.87;100.00;101817.94;4774319;30;20130;-84
2021/01/13 02:16:18;;;;;;;14.20;2.28;;;;;;;1.80;100.00;101820.47;4776707;29;20081;-84
2021/01/13 02:18:48;;;;;;;13.85;2.10;;;;;;;1.88;100.00;101817.94;4809836;29;20055;-84
2021/01/13 02:21:18;;;;;;;12.32;1.65;;;;;;;1.88;100.00;101817.94;4793349;29;20030;-84
2021/01/13 02:24:06;;;;;;;18.67;1.88;;;;;;;1.90;100.00;101818.81;4793963;29;20030;-83
2021/01/13 02:27:08;;;;;;;20.10;2.92;;;;;;;1.86;100.00;101816.16;4816034;29;20390;-84
2021/01/13 02:29:53;;;;;;;13.60;2.10;;;;;;;1.78;100.00;101822.22;4816241;29;20033;-84
2021/01/13 02:32:22;;;;;;;14.80;2.15;;;;;;;1.58;100.00;101804.69;4816600;29;20075;-83
2021/01/13 02:35:08;;;;;;;12.10;1.98;;;;;;;1.62;100.00;101820.34;4801305;29;20041;-83
2021/01/13 02:37:42;;;;;;;26.13;3.67;;;;;;;1.66;100.00;101818.66;4816520;29;20022;-83
2021/01/13 02:40:20;;;;;;;10.63;1.63;;;;;;;1.72;100.00;101816.94;4801189;29;20095;-83
2021/01/13 02:42:59;;;;;;;14.10;2.20;;;;;;;1.74;100.00;101810.00;4816825;29;20109;-83
2021/01/13 02:45:26;;;;;;;17.23;1.95;;;;;;;1.70;100.00;101807.38;4797844;29;20064;-84
2021/01/13 02:47:57;;;;;;;15.27;1.65;;;;;;;1.70;100.00;101823.00;4805992;29;20054;-83
2021/01/13 02:50:25;;;;;;;16.48;1.73;;;;;;;1.70;100.00;101818.66;4810044;29;20030;-83
2021/01/13 02:53:13;;;;;;;7.35;1.40;;;;;;;1.81;100.00;101816.16;4810185;29;20046;-83
2021/01/13 02:55:48;;;;;;;19.40;1.98;;;;;;;1.76;100.00;101820.47;4748610;29;20054;-83
2021/01/13 02:58:23;;;;;;;21.83;2.40;;;;;;;1.76;100.00;101825.69;4810291;29;20039;-82
2021/01/13 03:00:49;;;;;;;14.38;1.95;;;;;;;1.86;100.00;101829.19;4809516;29;20792;-83
2021/01/13 03:03:17;;;;;;;15.30;1.77;;;;;;;1.85;100.00;101825.72;4793444;29;20042;-82
2021/01/13 03:05:42;;;;;;;7.22;2.40;;;;;;;1.82;100.00;101825.72;4811058;29;20039;-82
2021/01/13 03:08:11;;;;;;;17.30;2.13;;;;;;;1.77;100.00;101822.22;4793015;29;20042;-84
2021/01/13 03:10:38;;;;;;;17.92;2.35;;;;;;;1.77;100.00;101815.25;4811883;29;20066;-84
2021/01/13 03:13:05;;;;;;;18.33;1.73;;;;;;;1.81;100.00;101824.84;4796477;29;20037;-84
2021/01/13 03:15:33;;;;;;;11.90;1.88;;;;;;;1.77;100.00;101822.22;4792487;29;20039;-83
2021/01/13 03:18:22;;;;;;;15.23;1.80;;;;;;;1.69;100.00;101826.47;4788457;30;20062;-83
2021/01/13 03:21:01;;;;;;;25.10;2.97;;;;;;;1.89;100.00;101824.03;4787718;29;20043;-83
2021/01/13 03:23:52;;;;;;;12.23;2.70;;;;;;;1.82;100.00;101828.31;4777735;30;20500;-83
2021/01/13 03:26:21;;;;;;;10.30;2.40;;;;;;;1.75;100.00;101821.31;4793605;29;20056;-83
2021/01/13 03:28:50;;;;;;;18.10;2.55;;;;;;;1.76;100.00;101821.34;4790505;29;20042;-83
2021/01/13 03:31:24;;;;;;;14.93;2.17;;;;;;;1.66;100.00;101824.72;4784574;30;20118;-83
2021/01/13 03:34:37;;;;;;;14.68;2.55;;;;;;;1.74;100.00;101827.38;4787008;30;20476;-83
2021/01/13 03:37:22;;;;;;;16.00;2.80;;;;;;;1.79;100.00;101823.94;4781269;29;20058;-83
2021/01/13 03:39:51;;;;;;;12.82;3.00;;;;;;;1.89;100.00;101824.88;4794560;29;20035;-83
2021/01/13 03:42:18;;;;;;;17.30;1.95;;;;;;;2.04;100.00;101821.50;4791769;29;20099;-83
2021/01/13 03:44:46;;;;;;;14.02;2.55;;;;;;;2.14;100.00;101806.78;4786735;30;20036;-83
2021/01/13 03:47:32;;;;;;;17.27;1.92;;;;;;;2.07;100.00;101809.38;4795441;29;20446;-83
2021/01/13 03:50:09;;;;;;;17.08;1.90;;;;;;;2.06;100.00;101815.47;4788897;29;20031;-83
2021/01/13 03:52:55;;;;;;;16.40;2.72;;;;;;;2.01;100.00;101816.28;4779501;29;20110;-83
2021/01/13 03:55:23;;;;;;;10.80;3.47;;;;;;;1.89;100.00;101811.84;4788200;30;20034;-83
2021/01/13 03:57:57;;;;;;;17.60;2.15;;;;;;;2.05;100.00;101831.94;4785254;30;20387;-83
2021/01/13 04:01:03;;;;;;;11.23;1.92;;;;;;;2.03;100.00;101819.78;4788509;29;20035;-83
2021/01/13 04:03:31;;;;;;;11.63;2.72;;;;;;;2.00;100.00;101818.00;4738462;30;20063;-83
2021/01/13 04:06:02;;;;;;;18.10;1.83;;;;;;;2.11;100.00;101817.19;4740233;30;20044;-83
2021/01/13 04:08:40;;;;;;;12.38;2.40;;;;;;;2.10;100.00;101823.28;4739563;30;20032;-83
2021/01/13 04:11:08;;;;;;;15.45;2.25;;;;;;;2.13;100.00;101812.88;4732023;30;20149;-82
2021/01/13 04:13:39;;;;;;;12.00;1.92;;;;;;;2.11;100.00;101815.50;4736213;30;20033;-82
2021/01/13 04:16:07;;;;;;;15.50;2.25;;;;;;;2.13;100.00;101820.69;4745808;30;20044;-83
2021/01/13 04:18:33;;;;;;;11.60;2.15;;;;;;;2.11;100.00;101812.88;4733540;30;20048;-83
2021/01/13 04:20:59;;;;;;;15.77;2.33;;;;;;;2.18;100.00;101812.03;4733265;30;20101;-83
2021/01/13 04:23:24;;;;;;;17.88;3.10;;;;;;;2.22;100.00;101807.72;4748857;30;20075;-83
2021/01/13 04:25:50;;;;;;;13.15;1.73;;;;;;;2.23;100.00;101807.72;4736774;30;20108;-84
2021/01/13 04:28:16;;;;;;;18.27;2.38;;;;;;;2.21;100.00;101806.84;4737214;30;20512;-82
2021/01/13 04:30:44;;;;;;;10.63;2.75;;;;;;;2.27;100.00;101806.00;4754867;30;20052;-83
2021/01/13 04:33:10;;;;;;;16.83;2.05;;;;;;;2.14;100.00;101802.44;4736315;30;20036;-83
2021/01/13 04:35:36;;;;;;;16.60;2.78;;;;;;;2.21;100.00;101806.84;4750013;30;20036;-83
2021/01/13 04:38:03;;;;;;;18.67;2.05;;;;;;;2.29;100.00;101801.66;4796389;29;20083;-83
2021/01/13 04:40:36;;;;;;;10.50;1.42;;;;;;;2.09;100.00;101796.31;4790010;29;20030;-82
2021/01/13 04:43:01;;;;;;;12.13;2.30;;;;;;;2.08;100.00;101805.88;4787182;29;20484;-84
2021/01/13 04:45:43;;;;;;;17.08;2.10;;;;;;;1.97;100.00;101786.72;4790424;29;20030;-84
2021/01/13 04:48:09;;;;;;;11.45;1.80;;;;;;;2.11;100.00;101796.31;4791074;29;20049;-83
2021/01/13 04:50:43;;;;;;;24.02;2.58;;;;;;;2.11;100.00;101788.50;4785434;29;20122;-83
2021/01/13 04:53:11;;;;;;;15.30;1.70;;;;;;;2.05;100.00;101795.44;4790718;29;20038;-82
2021/01/13 04:55:45;;;;;;;8.95;1.58;;;;;;;2.02;100.00;101794.56;4788964;29;20117;-82
2021/01/13 04:58:20;;;;;;;10.20;1.55;;;;;;;2.05;100.00;101791.97;4791540;29;20031;-83
2021/01/13 05:01:07;;;;;;;12.93;1.75;;;;;;;1.98;100.00;101801.47;4813963;29;20034;-84
2021/01/13 05:03:59;;;;;;;19.42;1.77;;;;;;;2.07;100.00;101793.72;4798424;29;20030;-84
2021/01/13 05:07:09;;;;;;;19.63;2.25;;;;;;;1.93;100.00;101787.56;4811701;29;20042;-84
2021/01/13 05:09:50;;;;;;;7.03;1.33;;;;;;;1.96;100.00;101786.72;4786303;29;20049;-84
2021/01/13 05:12:15;;;;;;;8.15;1.20;;;;;;;2.05;100.00;101784.13;4814206;29;20035;-84
2021/01/13 05:14:45;;;;;;;16.55;2.75;;;;;;;2.02;100.00;101778.91;4795629;29;20042;-84
2021/01/13 05:17:33;;;;;;;13.48;3.00;;;;;;;2.15;100.00;101769.41;4787413;29;20043;-84
2021/01/13 05:20:23;;;;;;;10.80;1.40;;;;;;;2.05;100.00;101782.41;4781034;30;20134;-84
2021/01/13 05:22:52;;;;;;;13.88;2.30;;;;;;;2.01;100.00;101774.56;4783698;30;20109;-84
2021/01/13 05:25:44;;;;;;;10.18;1.88;;;;;;;2.05;100.00;101785.00;4794473;29;20032;-84
2021/01/13 05:28:13;;;;;;;17.45;2.20;;;;;;;2.19;100.00;101769.44;4796079;29;20042;-83
2021/01/13 05:30:44;;;;;;;6.10;1.50;;;;;;;2.20;100.00;101772.91;4787411;29;20399;-83
2021/01/13 05:33:21;;;;;;;10.65;2.08;;;;;;;2.25;100.00;101777.28;4788112;29;20719;-84
2021/01/13 05:35:50;;;;;;;25.85;2.40;;;;;;;2.35;100.00;101759.94;4779476;30;20051;-83
2021/01/13 05:38:18;;;;;;;9.77;1.42;;;;;;;2.40;100.00;101765.16;4788756;29;20031;-83
2021/01/13 05:40:53;;;;;;;15.48;2.30;;;;;;;2.46;100.00;101759.97;4784092;30;20036;-84
2021/01/13 05:43:21;;;;;;;12.05;2.40;;;;;;;2.42;100.00;101758.25;4789499;29;20043;-82
2021/01/13 05:45:47;;;;;;;15.20;1.50;;;;;;;2.43;100.00;101753.03;4790024;29;20035;-82
2021/01/13 05:48:20;;;;;;;4.55;1.25;;;;;;;2.49;100.00;101770.44;4789790;29;20548;-82
2021/01/13 05:50:46;;;;;;;10.05;2.08;;;;;;;2.45;100.00;101758.22;4788330;29;20383;-83
2021/01/13 05:53:12;;;;;;;7.45;2.00;;;;;;;2.44;100.00;101765.19;4786426;30;20031;-83
2021/01/13 05:55:46;;;;;;;20.77;2.03;;;;;;;2.38;100.00;101754.75;4786594;29;20434;-83
2021/01/13 05:58:12;;;;;;;14.23;1.80;;;;;;;2.39;100.00;101760.81;4797977;29;20039;-83
2021/01/13 06:00:37;;;;;;;12.50;1.65;;;;;;;2.37;100.00;101754.75;4796329;30;20035;-83
2021/01/13 06:03:04;;;;;;;14.27;1.67;;;;;;;2.33;100.00;101756.47;4798662;29;20107;-85
2021/01/13 06:05:32;;;;;;;18.90;2.80;;;;;;;2.31;100.00;101751.25;4800009;29;20031;-84
2021/01/13 06:07:59;;;;;;;16.05;3.58;;;;;;;2.32;100.00;101757.34;4784824;30;20035;-83
2021/01/13 06:10:30;;;;;;;12.75;1.60;;;;;;;2.38;100.00;101752.13;4778087;29;20463;-83
2021/01/13 06:12:59;;;;;;;9.40;2.30;;;;;;;2.34;100.00;101751.25;4778725;30;20492;-83
2021/01/13 06:15:25;;;;;;;9.82;1.98;;;;;;;2.41;100.00;101748.66;4781693;30;20916;-83
2021/01/13 06:17:52;;;;;;;19.80;1.83;;;;;;;2.30;100.00;101757.31;4785305;30;20051;-82
2021/01/13 06:20:20;;;;;;;14.02;2.22;;;;;;;2.38;100.00;101749.53;4788139;29;20031;-83
2021/01/13 06:22:47;;;;;;;8.73;2.75;;;;;;;2.33;100.00;101748.63;4786858;29;20390;-82
2021/01/13 06:25:19;;;;;;;22.10;3.53;;;;;;;2.44;100.00;101753.88;4782860;29;20058;-83
2021/01/13 06:28:08;;;;;;;16.48;1.90;;;;;;;2.38;100.00;101746.03;4779275;30;20688;-83
2021/01/13 06:30:41;;;;;;;4.68;1.48;;;;;;;2.50;100.00;101757.38;4786249;29;20026;-82
2021/01/13 06:33:20;;;;;;;15.50;3.03;;;;;;;2.38;100.00;101753.88;4781308;29;20031;-83
2021/01/13 06:35:45;;;;;;;10.88;2.05;;;;;;;2.35;100.00;101762.53;4786315;29;20059;-84
2021/01/13 06:39:00;;;;;;;6.05;1.50;;;;;;;2.48;100.00;101764.34;4787270;29;20082;-83
2021/01/13 06:41:27;;;;;;;7.03;1.50;;;;;;;2.45;100.00;101753.00;4776431;30;20131;-83
2021/01/13 06:44:00;;;;;;;9.10;1.73;;;;;;;2.43;100.00;101757.38;4785005;30;20749;-83
2021/01/13 06:46:26;;;;;;;11.30;1.55;;;;;;;2.34;100.00;101745.16;4788806;29;20039;-83
2021/01/13 06:48:53;;;;;;;9.40;1.40;;;;;;;2.38;100.00;101759.97;4793513;30;20085;-83
2021/01/13 06:51:19;;;;;;;12.00;2.28;;;;;;;2.30;100.00;101751.22;4795975;29;20421;-84
2021/01/13 06:53:46;;;;;;;9.15;2.83;;;;;;;2.33;100.00;101751.25;4797948;30;20027;-83
2021/01/13 06:56:15;;;;;;;12.25;2.88;;;;;;;2.24;100.00;101757.28;4800223;29;20031;-83
2021/01/13 06:59:00;;;;;;;19.67;2.80;;;;;;;2.20;100.00;101754.66;4794903;29;20027;-84
2021/01/13 07:01:25;;;;;;;9.93;2.28;;;;;;;2.15;100.00;101751.16;4801482;29;20055;-86
2021/01/13 07:03:58;;;;;;;18.33;2.40;;;;;;;2.10;100.00;101752.88;4797197;29;20039;-84
2021/01/13 07:06:24;;;;;;;12.10;3.38;;;;;;;2.13;100.00;101747.69;4796797;30;20127;-83
2021/01/13 07:08:51;;;;;;;11.10;3.55;;;;;;;2.02;100.00;101751.09;4794567;29;20066;-84
2021/01/13 07:11:16;;;;;;;12.15;2.13;;;;;;;2.07;100.00;101752.00;4787933;29;20042;-83
2021/01/13 07:13:51;;;;;;;14.95;2.33;;;;;;;2.04;100.00;101756.31;4788835;30;20039;-83
2021/01/13 07:16:22;;;;;;;5.13;1.70;;;;;;;2.01;100.00;101749.38;4792256;29;20403;-83
2021/01/13 07:18:48;;;;;;;19.67;2.30;;;;;;;2.08;100.00;101752.88;4807613;29;20045;-85
2021/01/13 07:21:13;;;;;;;12.48;2.38;;;;;;;2.10;100.00;101745.91;4797719;29;20046;-83
2021/01/13 07:23:47;;;;;;;25.33;3.50;;;;;;;2.06;100.00;101733.75;4779596;29;20484;-85
2021/01/13 07:26:13;;;;;;;14.38;3.05;;;;;;;2.06;100.00;101759.81;4798506;29;20026;-85
2021/01/13 07:28:39;;;;;;;13.15;2.78;;;;;;;2.09;100.00;101744.19;4803503;29;20045;-85
2021/01/13 07:31:07;;;;;;;12.10;2.20;;;;;;;2.12;100.00;101756.38;4800900;29;20038;-86
2021/01/13 07:33:46;;;;;;;12.77;2.33;;;;;;;2.12;100.00;101744.19;4792544;29;20023;-83
2021/01/13 07:45:04;;;;;;;13.63;2.33;;;;;;;1.97;100.00;101737.16;4803216;24;20059;-82
2021/01/13 07:48:08;;;;;;;;;;;;;;;2.11;100.00;101746.78;4793248;29;20393;-83
2021/01/13 07:51:09;;;;;;;14.90;2.75;;;;;;;2.12;100.00;101753.75;4755055;30;19921;-83
2021/01/13 07:54:06;;;;;;;12.57;1.88;;;;;;;2.10;100.00;101758.06;4791507;29;20030;-82
2021/01/13 08:07:40;;;;;;;9.95;1.58;;;;;;;2.31;100.00;101740.81;4812941;29;20677;-83
2021/01/13 08:10:57;;;;;;;21.25;2.83;;;;;;;2.35;100.00;101746.88;4799533;29;20027;-85
2021/01/13 08:32:41;;;;;;;10.70;2.87;;;;;;;2.39;100.00;101747.78;3060704;24;20448;-81
2021/01/13 08:35:47;;;;;;;10.52;2.40;;;;;;;2.46;100.00;101757.34;4805896;29;20062;-84
2021/01/13 08:38:55;;;;;;;14.75;1.88;;;;;;;2.47;100.00;101749.56;4787090;29;20168;-84
2021/01/13 08:41:23;;;;;;;6.72;2.08;;;;;;;2.41;100.00;101735.59;4806557;29;20074;-85
2021/01/13 08:45:02;;;;;;;14.73;2.03;;;;;;;2.54;100.00;101740.00;4802779;29;20377;-85
2021/01/13 08:48:15;;;;;;;11.63;2.28;;;;;;;2.41;100.00;101719.94;4772778;30;20138;-85
2021/01/13 08:51:23;;;;;;;10.45;1.90;;;;;;;2.60;100.00;101745.22;4714141;30;20048;-85
2021/01/13 09:15:48;;;;;;;10.30;1.97;;;;;;;3.23;100.00;101734.88;1200954;24;20591;-82
2021/01/13 09:18:37;;;;;;;25.05;4.95;;;;;;;3.53;100.00;101724.41;4824940;29;20046;-82
2021/01/13 09:21:55;;;;;;;14.60;2.83;;;;;;;3.57;100.00;101734.00;4818105;29;20034;-83
2021/01/13 09:24:39;;;;;;;8.80;2.20;;;;;;;3.77;100.00;101739.19;4724681;29;20043;-84
2021/01/13 09:31:06;;;;;;;13.25;2.30;;;;;;;4.66;97.44;101733.59;4736314;30;20132;-84
2021/01/13 09:33:46;;;;;;;12.20;2.67;;;;;;;4.32;98.92;101733.78;4740878;30;20124;-84
2021/01/13 09:37:04;;;;;;;15.40;2.08;;;;;;;4.27;99.36;101716.38;4743834;30;20045;-84
2021/01/13 09:40:21;;;;;;;8.80;1.92;;;;;;;4.44;98.58;101726.75;4716399;30;20865;-84
2021/01/13 09:43:33;;;;;;;17.52;3.08;;;;;;;4.83;97.38;101725.66;4652924;30;20046;-84
2021/01/13 09:46:02;;;;;;;15.52;2.85;;;;;;;4.64;97.46;101722.25;4644420;30;20062;-83
2021/01/13 10:15:46;;;;;;;11.20;3.37;;;;;;;6.14;92.93;101729.69;3134364;27;20069;-82
2021/01/13 10:18:52;;;;;;;;;;;;;;;6.50;91.94;101732.75;4749239;30;20299;-83
2021/01/13 10:36:40;;;;;;;15.47;3.10;;;;;;;7.45;85.32;101708.47;4930967;24;20055;-84
2021/01/13 10:40:01;;;;;;;20.15;3.20;;;;;;;7.79;84.04;101718.41;4817105;29;20042;-84
2021/01/13 10:43:13;;;;;;;15.23;2.53;;;;;;;8.03;83.20;101722.28;4813206;29;20034;-83
2021/01/13 10:45:57;;;;;;;14.88;2.63;;;;;;;7.89;83.30;101721.72;4798319;29;20031;-84
2021/01/13 10:52:43;;;;;;;12.85;3.50;;;;;;;8.31;81.41;101717.34;4771004;30;20054;-82
2021/01/13 10:55:45;;;;;;;9.45;2.75;;;;;;;8.32;81.36;101708.53;4775422;30;20641;-83
2021/01/13 11:04:29;;;;;;;13.85;2.38;;;;;;;8.37;81.64;101698.81;4814859;24;20051;-81
2021/01/13 11:07:07;;;;;;;16.10;2.85;;;;;;;7.64;82.80;101684.47;4801606;29;20099;-82
2021/01/13 11:09:34;;;;;;;14.93;2.85;;;;;;;8.18;81.64;101700.94;4808574;29;20129;-81
2021/01/13 11:11:59;;;;;;;13.30;3.15;;;;;;;8.14;80.61;101694.00;4787902;29;20030;-81
2021/01/13 11:14:49;;;;;;;19.63;3.28;;;;;;;7.74;81.58;101686.91;4790088;29;20095;-82
2021/01/13 11:17:21;;;;;;;10.00;2.88;;;;;;;8.05;81.05;101681.03;4802415;29;20035;-81
2021/01/13 11:20:00;;;;;;;8.40;1.77;;;;;;;7.77;81.52;101675.44;4789635;29;20038;-81
2021/01/13 11:22:47;;;;;;;12.82;2.20;;;;;;;7.68;81.77;101671.25;4783614;29;20102;-81
2021/01/13 11:25:19;;;;;;;16.40;3.50;;;;;;;8.26;80.86;101679.72;4801189;29;20030;-82
2021/01/13 11:27:53;;;;;;;19.25;3.00;;;;;;;8.25;79.84;101663.03;4786935;29;20074;-82
2021/01/13 11:30:19;;;;;;;18.77;3.90;;;;;;;8.98;78.36;101660.47;4805243;29;20058;-81
2021/01/13 11:33:07;;;;;;;14.25;2.53;;;;;;;8.78;78.21;101665.38;4799402;29;20039;-83
2021/01/13 11:35:47;;;;;;;42.17;5.03;;;;;;;8.21;78.96;101669.25;4791774;29;20026;-86
2021/01/13 12:00:23;;;;;;;8.93;2.03;;;;;;;9.04;75.70;101638.41;3000255;24;20055;-82
2021/01/13 12:05:51;;;;;;;16.13;2.97;;;;;;;9.48;72.82;101616.09;4788337;29;20091;-85
2021/01/13 12:35:51;;;;;;;11.80;2.07;;;;;;;9.15;72.22;101617.03;815656;27;21198;-86
2021/01/13 12:59:23;;;;;;;15.40;2.37;;;;;;;7.36;80.68;101579.78;4706256;24;20055;-82
2021/01/13 13:05:31;;;;;;;9.60;1.58;;;;;;;6.78;78.87;101580.84;4805864;29;20059;-84
2021/01/13 13:07:56;;;;;;;12.65;2.67;;;;;;;6.83;80.76;101580.75;4794494;29;20050;-84
2021/01/13 14:06:26;;;;;;;11.83;2.10;;;;;;;5.99;84.93;101566.31;4455869;24;20055;-86
2021/01/13 14:18:14;;;;;;;16.08;4.68;;;;;;;5.79;87.61;101559.53;503244;27;20381;-81
2021/01/13 14:21:08;;;;;;;;;;;;;;;5.67;87.19;101557.06;4813146;29;20055;-82
2021/01/13 14:23:42;;;;;;;18.65;3.40;;;;;;;5.63;87.25;101551.00;4807332;29;20072;-86
2021/01/13 14:26:08;;;;;;;18.38;3.95;;;;;;;5.61;87.60;101558.00;4789328;29;20649;-86
2021/01/13 14:28:33;;;;;;;19.85;4.50;;;;;;;5.50;86.81;101551.19;4793000;29;20042;-87
2021/01/13 14:30:59;;;;;;;19.38;4.22;;;;;;;5.52;85.26;101567.75;4809247;29;20030;-86
2021/01/13 14:33:24;;;;;;;14.60;5.05;;;;;;;5.43;83.28;101567.00;4808608;29;20034;-86
2021/01/13 14:35:50;;;;;;;14.77;4.25;;;;;;;5.42;84.61;101544.28;4797686;29;20089;-86
2021/01/13 14:38:15;;;;;;;12.82;4.10;;;;;;;5.42;81.99;101552.16;4815874;29;20055;-86
2021/01/13 14:40:40;;;;;;;23.85;4.35;;;;;;;5.41;82.84;101570.50;4809735;29;20038;-86
2021/01/13 14:43:06;;;;;;;15.98;3.63;;;;;;;5.41;81.85;101565.25;4793148;29;20039;-86
2021/01/13 14:45:31;;;;;;;15.52;3.25;;;;;;;5.35;81.28;101576.69;4794571;29;20047;-86
2021/01/13 14:47:58;;;;;;;12.48;2.80;;;;;;;5.37;81.13;101564.44;4801558;29;20054;-87
2021/01/13 14:50:23;;;;;;;24.00;4.00;;;;;;;5.30;81.61;101551.41;4793968;29;20740;-86
2021/01/13 14:52:48;;;;;;;10.73;2.83;;;;;;;5.38;81.92;101571.41;4798343;29;20031;-87
2021/01/13 14:55:14;;;;;;;15.75;2.90;;;;;;;5.34;81.68;101558.34;4812597;29;20034;-86
2021/01/13 14:57:39;;;;;;;8.13;2.85;;;;;;;5.28;80.26;101547.94;4817750;29;20376;-87
2021/01/13 15:00:05;;;;;;;8.32;1.98;;;;;;;5.30;80.84;101557.50;4794576;29;20423;-87
2021/01/13 15:02:31;;;;;;;5.93;2.17;;;;;;;5.25;80.72;101546.22;4810348;29;20688;-87
2021/01/13 15:04:56;;;;;;;17.15;2.53;;;;;;;5.29;81.07;101558.41;4813588;29;20041;-87
2021/01/13 15:07:21;;;;;;;9.75;2.25;;;;;;;5.19;82.39;101547.16;4794981;29;20050;-86
2021/01/13 15:09:47;;;;;;;9.93;2.22;;;;;;;5.19;82.20;101547.16;4791035;29;20045;-86
2021/01/13 15:12:12;;;;;;;14.77;2.13;;;;;;;5.05;82.25;101527.22;4797058;29;20891;-87
2021/01/13 15:14:37;;;;;;;13.77;2.45;;;;;;;5.08;84.24;101541.16;4806972;29;20073;-87
2021/01/13 15:17:03;;;;;;;22.92;3.40;;;;;;;5.08;83.29;101550.78;4809353;29;20069;-87
2021/01/13 15:19:28;;;;;;;11.90;2.42;;;;;;;5.06;81.84;101545.53;4798547;29;20054;-87
2021/01/13 15:21:59;;;;;;;6.45;1.40;;;;;;;4.94;80.61;101535.19;4808545;29;20740;-87
2021/01/13 15:24:25;;;;;;;14.38;4.03;;;;;;;4.94;82.55;101541.31;4829474;29;20018;-87
2021/01/13 15:26:51;;;;;;;11.45;2.85;;;;;;;4.90;81.87;101547.44;4812723;29;20030;-87
2021/01/13 15:29:16;;;;;;;12.30;2.00;;;;;;;4.99;83.02;101561.34;4811417;29;20077;-87
2021/01/13 15:31:42;;;;;;;11.88;1.85;;;;;;;4.87;82.94;101547.50;4829781;29;20034;-87
2021/01/13 15:34:07;;;;;;;9.07;1.90;;;;;;;4.74;82.64;101539.75;4813000;29;20605;-87
2021/01/13 15:36:34;;;;;;;13.05;2.13;;;;;;;4.83;83.71;101552.78;4831053;29;20110;-87
2021/01/13 15:39:00;;;;;;;8.63;1.98;;;;;;;4.79;83.69;101562.41;4809722;29;20034;-87
2021/01/13 15:41:25;;;;;;;15.02;2.80;;;;;;;4.77;83.41;101574.66;4802644;29;20489;-87
2021/01/13 15:43:54;;;;;;;5.80;2.20;;;;;;;4.81;83.41;101570.25;4829345;29;20030;-87
2021/01/13 15:46:23;;;;;;;13.88;3.33;;;;;;;4.78;84.22;101557.19;4812811;29;20056;-87
2021/01/13 15:48:50;;;;;;;14.38;3.13;;;;;;;4.80;83.38;101569.38;4808433;29;20034;-87
2021/01/13 15:51:16;;;;;;;12.60;2.30;;;;;;;4.78;83.41;101567.66;4816809;29;20398;-87
2021/01/13 15:53:43;;;;;;;12.93;2.13;;;;;;;4.63;84.10;101552.97;4825684;29;20034;-87
2021/01/13 15:56:12;;;;;;;14.52;2.00;;;;;;;4.74;84.02;101565.94;4808215;29;20139;-86
2021/01/13 15:58:50;;;;;;;6.78;1.83;;;;;;;4.60;83.67;101555.59;4809071;29;20340;-86
2021/01/13 16:01:15;;;;;;;22.83;2.15;;;;;;;4.65;84.26;101559.03;4829477;29;20122;-86
2021/01/13 16:03:41;;;;;;;12.88;2.47;;;;;;;4.45;84.73;101532.16;4810330;29;20022;-86
2021/01/13 16:06:07;;;;;;;11.68;2.78;;;;;;;4.60;84.60;101556.47;4815570;29;20183;-87
2021/01/13 16:08:32;;;;;;;7.22;2.08;;;;;;;4.54;84.27;101546.03;4821253;29;20034;-86
2021/01/13 16:10:57;;;;;;;6.68;1.83;;;;;;;4.48;84.05;101537.38;4812133;29;20065;-86
2021/01/13 16:13:24;;;;;;;22.75;3.10;;;;;;;4.57;84.01;101548.66;4798972;29;20042;-86